ルレオ の空港の天気 - METARとTAF

Lulea / Kallax ( ESPA / LLA ) - スウェーデン ルレオ
飛行場実況気象(Metar)
観測時間07/21 18:50 CEST (07/21 16:50 UTC)
風向・風速東南東 2m/s
視程10km以上
天気現象
なし
気温23℃
湿度73%
気圧1005hPa
METARESPA 211650Z 11004KT CAVOK 23/18 Q1005
過去の天気等 Google飛行場航空写真 Wunderground天気予報

過去48時間のMETAR

飛行場予報(TAF)
発表時間: 7/21 16:30 CEST (7/21 14:30 UTC)
予報対象時間: 21日17時 CEST ~ 21日21時 CEST
風向・風速南東 4m/s
視程10km以上
なし
TAF ESPA 211430Z 2115/2119 13008KT CAVOK